sensor_id;sensor_type;location;lat;lon;timestamp;temperature;humidity
30069;DHT22;16894;49.456;10.644;2023-09-18T00:01:57;15.90;99.90
30069;DHT22;16894;49.456;10.644;2023-09-18T00:04:23;15.90;99.90
30069;DHT22;16894;49.456;10.644;2023-09-18T00:06:48;15.90;99.90
30069;DHT22;16894;49.456;10.644;2023-09-18T00:09:14;15.90;99.90
30069;DHT22;16894;49.456;10.644;2023-09-18T00:11:40;15.90;99.90
30069;DHT22;16894;49.456;10.644;2023-09-18T00:14:07;15.80;99.90
30069;DHT22;16894;49.456;10.644;2023-09-18T00:16:33;15.80;99.90
30069;DHT22;16894;49.456;10.644;2023-09-18T00:18:58;15.80;99.90
30069;DHT22;16894;49.456;10.644;2023-09-18T00:21:25;15.80;99.90
30069;DHT22;16894;49.456;10.644;2023-09-18T00:23:51;15.70;99.90
30069;DHT22;16894;49.456;10.644;2023-09-18T00:26:17;15.60;99.90
30069;DHT22;16894;49.456;10.644;2023-09-18T00:28:43;15.60;99.90
30069;DHT22;16894;49.456;10.644;2023-09-18T00:31:09;15.60;99.90
30069;DHT22;16894;49.456;10.644;2023-09-18T00:33:35;15.60;99.90
30069;DHT22;16894;49.456;10.644;2023-09-18T00:36:01;15.60;99.90
30069;DHT22;16894;49.456;10.644;2023-09-18T00:38:27;15.50;99.90
30069;DHT22;16894;49.456;10.644;2023-09-18T00:40:53;15.60;99.90
30069;DHT22;16894;49.456;10.644;2023-09-18T00:43:18;15.50;99.90
30069;DHT22;16894;49.456;10.644;2023-09-18T00:45:47;15.50;99.90
30069;DHT22;16894;49.456;10.644;2023-09-18T00:48:17;15.50;99.90
30069;DHT22;16894;49.456;10.644;2023-09-18T00:50:44;15.40;99.90
30069;DHT22;16894;49.456;10.644;2023-09-18T00:53:14;15.50;99.90
30069;DHT22;16894;49.456;10.644;2023-09-18T00:55:41;15.50;99.90
30069;DHT22;16894;49.456;10.644;2023-09-18T00:58:07;15.40;99.90
30069;DHT22;16894;49.456;10.644;2023-09-18T01:00:33;15.40;99.90
30069;DHT22;16894;49.456;10.644;2023-09-18T01:03:00;15.40;99.90
30069;DHT22;16894;49.456;10.644;2023-09-18T01:05:27;15.50;99.90
30069;DHT22;16894;49.456;10.644;2023-09-18T01:07:52;15.40;99.90
30069;DHT22;16894;49.456;10.644;2023-09-18T01:10:18;15.30;99.90
30069;DHT22;16894;49.456;10.644;2023-09-18T01:15:35;15.20;99.90
30069;DHT22;16894;49.456;10.644;2023-09-18T01:18:02;15.10;99.90
30069;DHT22;16894;49.456;10.644;2023-09-18T01:20:28;15.10;1.00
30069;DHT22;16894;49.456;10.644;2023-09-18T01:22:54;15.10;1.00
30069;DHT22;16894;49.456;10.644;2023-09-18T01:25:20;15.10;1.00
30069;DHT22;16894;49.456;10.644;2023-09-18T01:27:45;15.10;99.90
30069;DHT22;16894;49.456;10.644;2023-09-18T01:30:12;15.10;99.90
30069;DHT22;16894;49.456;10.644;2023-09-18T01:32:39;15.10;99.90
30069;DHT22;16894;49.456;10.644;2023-09-18T01:35:06;15.10;99.90
30069;DHT22;16894;49.456;10.644;2023-09-18T01:37:33;15.10;99.90
30069;DHT22;16894;49.456;10.644;2023-09-18T01:40:01;15.10;99.90
30069;DHT22;16894;49.456;10.644;2023-09-18T01:42:32;15.00;99.90
30069;DHT22;16894;49.456;10.644;2023-09-18T01:44:58;15.00;99.90
30069;DHT22;16894;49.456;10.644;2023-09-18T01:47:24;15.10;99.90
30069;DHT22;16894;49.456;10.644;2023-09-18T01:49:52;15.00;99.90
30069;DHT22;16894;49.456;10.644;2023-09-18T01:52:18;15.10;99.90
30069;DHT22;16894;49.456;10.644;2023-09-18T01:54:44;15.10;99.90
30069;DHT22;16894;49.456;10.644;2023-09-18T01:57:10;15.10;99.90
30069;DHT22;16894;49.456;10.644;2023-09-18T01:59:38;15.10;99.90
30069;DHT22;16894;49.456;10.644;2023-09-18T02:02:05;15.10;99.90
30069;DHT22;16894;49.456;10.644;2023-09-18T02:04:33;15.00;99.90
30069;DHT22;16894;49.456;10.644;2023-09-18T02:06:58;14.90;99.90
30069;DHT22;16894;49.456;10.644;2023-09-18T02:09:24;14.90;99.90
30069;DHT22;16894;49.456;10.644;2023-09-18T02:11:50;14.90;99.90
30069;DHT22;16894;49.456;10.644;2023-09-18T02:14:15;14.90;99.90
30069;DHT22;16894;49.456;10.644;2023-09-18T02:16:42;14.90;99.90
30069;DHT22;16894;49.456;10.644;2023-09-18T02:19:12;14.90;99.90
30069;DHT22;16894;49.456;10.644;2023-09-18T02:21:42;14.90;99.90
30069;DHT22;16894;49.456;10.644;2023-09-18T02:24:08;14.80;99.90
30069;DHT22;16894;49.456;10.644;2023-09-18T02:26:34;14.70;99.90
30069;DHT22;16894;49.456;10.644;2023-09-18T02:29:02;14.80;99.90
30069;DHT22;16894;49.456;10.644;2023-09-18T02:31:29;14.80;99.90
30069;DHT22;16894;49.456;10.644;2023-09-18T02:33:55;14.80;99.90
30069;DHT22;16894;49.456;10.644;2023-09-18T02:36:21;14.80;99.90
30069;DHT22;16894;49.456;10.644;2023-09-18T02:38:46;14.90;99.90
30069;DHT22;16894;49.456;10.644;2023-09-18T02:41:13;14.80;99.90
30069;DHT22;16894;49.456;10.644;2023-09-18T02:43:38;14.70;99.90
30069;DHT22;16894;49.456;10.644;2023-09-18T02:46:05;14.70;99.90
30069;DHT22;16894;49.456;10.644;2023-09-18T02:48:31;14.60;99.90
30069;DHT22;16894;49.456;10.644;2023-09-18T02:50:58;14.60;99.90
30069;DHT22;16894;49.456;10.644;2023-09-18T02:53:24;14.70;99.90
30069;DHT22;16894;49.456;10.644;2023-09-18T02:55:53;14.70;99.90
30069;DHT22;16894;49.456;10.644;2023-09-18T02:58:20;14.70;99.90
30069;DHT22;16894;49.456;10.644;2023-09-18T03:00:50;14.70;99.90
30069;DHT22;16894;49.456;10.644;2023-09-18T03:03:16;14.60;99.90
30069;DHT22;16894;49.456;10.644;2023-09-18T03:05:43;14.60;99.90
30069;DHT22;16894;49.456;10.644;2023-09-18T03:08:10;14.60;99.90
30069;DHT22;16894;49.456;10.644;2023-09-18T03:10:37;14.60;99.90
30069;DHT22;16894;49.456;10.644;2023-09-18T03:13:05;14.60;99.90
30069;DHT22;16894;49.456;10.644;2023-09-18T03:15:32;14.60;99.90
30069;DHT22;16894;49.456;10.644;2023-09-18T03:17:59;14.60;99.90
30069;DHT22;16894;49.456;10.644;2023-09-18T03:20:26;14.60;99.90
30069;DHT22;16894;49.456;10.644;2023-09-18T03:22:53;14.60;1.00
30069;DHT22;16894;49.456;10.644;2023-09-18T03:25:19;14.60;99.90
30069;DHT22;16894;49.456;10.644;2023-09-18T03:27:45;14.70;99.90
30069;DHT22;16894;49.456;10.644;2023-09-18T03:30:11;14.70;99.90
30069;DHT22;16894;49.456;10.644;2023-09-18T03:32:42;14.60;99.90
30069;DHT22;16894;49.456;10.644;2023-09-18T03:35:09;14.60;99.90
30069;DHT22;16894;49.456;10.644;2023-09-18T03:37:48;14.60;99.90
30069;DHT22;16894;49.456;10.644;2023-09-18T03:40:16;14.60;99.90
30069;DHT22;16894;49.456;10.644;2023-09-18T03:42:41;14.60;99.90
30069;DHT22;16894;49.456;10.644;2023-09-18T03:45:08;14.60;99.90
30069;DHT22;16894;49.456;10.644;2023-09-18T03:47:35;14.60;99.90
30069;DHT22;16894;49.456;10.644;2023-09-18T03:50:02;14.50;99.90
30069;DHT22;16894;49.456;10.644;2023-09-18T03:52:28;14.60;99.90
30069;DHT22;16894;49.456;10.644;2023-09-18T03:54:53;14.60;99.90
30069;DHT22;16894;49.456;10.644;2023-09-18T03:57:19;14.70;99.90
30069;DHT22;16894;49.456;10.644;2023-09-18T03:59:45;14.80;99.90
30069;DHT22;16894;49.456;10.644;2023-09-18T04:02:10;14.90;1.00
30069;DHT22;16894;49.456;10.644;2023-09-18T04:04:36;15.00;1.00
30069;DHT22;16894;49.456;10.644;2023-09-18T04:07:06;15.00;1.00
30069;DHT22;16894;49.456;10.644;2023-09-18T04:09:32;15.10;99.90
30069;DHT22;16894;49.456;10.644;2023-09-18T04:12:04;15.20;99.90
30069;DHT22;16894;49.456;10.644;2023-09-18T04:14:33;15.20;99.90
30069;DHT22;16894;49.456;10.644;2023-09-18T04:16:58;15.20;1.00
30069;DHT22;16894;49.456;10.644;2023-09-18T04:19:26;15.30;99.90
30069;DHT22;16894;49.456;10.644;2023-09-18T04:21:52;15.40;1.00
30069;DHT22;16894;49.456;10.644;2023-09-18T04:24:17;15.50;1.00
30069;DHT22;16894;49.456;10.644;2023-09-18T04:26:43;15.40;99.90
30069;DHT22;16894;49.456;10.644;2023-09-18T04:29:09;15.20;99.90
30069;DHT22;16894;49.456;10.644;2023-09-18T04:31:34;15.20;1.00
30069;DHT22;16894;49.456;10.644;2023-09-18T04:34:00;15.20;1.00
30069;DHT22;16894;49.456;10.644;2023-09-18T04:36:26;15.10;1.00
30069;DHT22;16894;49.456;10.644;2023-09-18T04:38:52;15.10;1.00
30069;DHT22;16894;49.456;10.644;2023-09-18T04:41:17;15.20;1.00
30069;DHT22;16894;49.456;10.644;2023-09-18T04:43:45;15.30;1.00
30069;DHT22;16894;49.456;10.644;2023-09-18T04:46:11;15.30;1.00
30069;DHT22;16894;49.456;10.644;2023-09-18T04:48:37;15.30;1.00
30069;DHT22;16894;49.456;10.644;2023-09-18T04:51:03;15.50;1.00
30069;DHT22;16894;49.456;10.644;2023-09-18T04:53:30;15.40;1.00
30069;DHT22;16894;49.456;10.644;2023-09-18T04:55:56;15.40;1.00
30069;DHT22;16894;49.456;10.644;2023-09-18T04:58:21;15.40;1.00
30069;DHT22;16894;49.456;10.644;2023-09-18T05:00:53;15.40;1.00
30069;DHT22;16894;49.456;10.644;2023-09-18T05:03:20;15.50;1.00
30069;DHT22;16894;49.456;10.644;2023-09-18T05:05:46;15.50;1.00
30069;DHT22;16894;49.456;10.644;2023-09-18T05:08:12;15.50;1.00
30069;DHT22;16894;49.456;10.644;2023-09-18T05:10:37;15.40;1.00
30069;DHT22;16894;49.456;10.644;2023-09-18T05:13:03;15.50;1.00
30069;DHT22;16894;49.456;10.644;2023-09-18T05:15:29;15.40;1.00
30069;DHT22;16894;49.456;10.644;2023-09-18T05:17:56;15.50;1.00
30069;DHT22;16894;49.456;10.644;2023-09-18T05:20:25;15.50;1.00
30069;DHT22;16894;49.456;10.644;2023-09-18T05:22:52;15.50;1.00
30069;DHT22;16894;49.456;10.644;2023-09-18T05:25:25;15.60;1.00
30069;DHT22;16894;49.456;10.644;2023-09-18T05:27:52;15.60;1.00
30069;DHT22;16894;49.456;10.644;2023-09-18T05:30:29;15.60;1.00
30069;DHT22;16894;49.456;10.644;2023-09-18T05:32:57;15.70;1.00
30069;DHT22;16894;49.456;10.644;2023-09-18T05:35:24;15.80;1.00
30069;DHT22;16894;49.456;10.644;2023-09-18T05:37:50;15.90;1.00
30069;DHT22;16894;49.456;10.644;2023-09-18T05:40:22;15.90;1.00
30069;DHT22;16894;49.456;10.644;2023-09-18T05:42:48;15.90;1.00
30069;DHT22;16894;49.456;10.644;2023-09-18T05:45:14;15.90;1.00
30069;DHT22;16894;49.456;10.644;2023-09-18T05:47:41;15.90;1.00
30069;DHT22;16894;49.456;10.644;2023-09-18T05:50:12;15.90;1.00
30069;DHT22;16894;49.456;10.644;2023-09-18T05:52:42;16.00;1.00
30069;DHT22;16894;49.456;10.644;2023-09-18T05:55:09;16.00;99.90
30069;DHT22;16894;49.456;10.644;2023-09-18T05:57:35;16.00;1.00
30069;DHT22;16894;49.456;10.644;2023-09-18T06:00:01;16.10;1.00
30069;DHT22;16894;49.456;10.644;2023-09-18T06:02:28;16.20;99.90
30069;DHT22;16894;49.456;10.644;2023-09-18T06:04:58;16.30;99.90
30069;DHT22;16894;49.456;10.644;2023-09-18T06:07:29;16.30;99.90
30069;DHT22;16894;49.456;10.644;2023-09-18T06:09:56;16.40;99.90
30069;DHT22;16894;49.456;10.644;2023-09-18T06:12:22;16.50;99.90
30069;DHT22;16894;49.456;10.644;2023-09-18T06:14:49;16.50;99.90
30069;DHT22;16894;49.456;10.644;2023-09-18T06:17:15;16.40;99.90
30069;DHT22;16894;49.456;10.644;2023-09-18T06:19:41;16.40;99.90
30069;DHT22;16894;49.456;10.644;2023-09-18T06:22:07;16.50;99.90
30069;DHT22;16894;49.456;10.644;2023-09-18T06:24:34;16.50;99.90
30069;DHT22;16894;49.456;10.644;2023-09-18T06:27:00;16.60;99.90
30069;DHT22;16894;49.456;10.644;2023-09-18T06:29:25;16.60;99.90
30069;DHT22;16894;49.456;10.644;2023-09-18T06:31:51;16.70;99.90
30069;DHT22;16894;49.456;10.644;2023-09-18T06:34:17;16.90;99.90
30069;DHT22;16894;49.456;10.644;2023-09-18T06:36:42;17.00;99.90
30069;DHT22;16894;49.456;10.644;2023-09-18T06:39:08;17.10;99.90
30069;DHT22;16894;49.456;10.644;2023-09-18T06:41:34;17.20;99.90
30069;DHT22;16894;49.456;10.644;2023-09-18T06:44:00;17.30;99.90
30069;DHT22;16894;49.456;10.644;2023-09-18T06:46:29;17.30;99.90
30069;DHT22;16894;49.456;10.644;2023-09-18T06:48:55;17.40;99.90
30069;DHT22;16894;49.456;10.644;2023-09-18T06:51:22;17.40;99.90
30069;DHT22;16894;49.456;10.644;2023-09-18T06:53:48;17.40;99.90
30069;DHT22;16894;49.456;10.644;2023-09-18T06:56:14;17.50;99.90
30069;DHT22;16894;49.456;10.644;2023-09-18T06:58:39;17.60;99.90
30069;DHT22;16894;49.456;10.644;2023-09-18T07:01:05;17.80;99.90
30069;DHT22;16894;49.456;10.644;2023-09-18T07:03:35;18.00;99.90
30069;DHT22;16894;49.456;10.644;2023-09-18T07:06:02;18.10;99.90
30069;DHT22;16894;49.456;10.644;2023-09-18T07:08:28;18.30;99.90
30069;DHT22;16894;49.456;10.644;2023-09-18T07:10:54;18.30;99.90
30069;DHT22;16894;49.456;10.644;2023-09-18T07:13:19;18.50;99.90
30069;DHT22;16894;49.456;10.644;2023-09-18T07:15:45;18.70;99.90
30069;DHT22;16894;49.456;10.644;2023-09-18T07:18:11;18.90;99.90
30069;DHT22;16894;49.456;10.644;2023-09-18T07:20:46;18.80;99.90
30069;DHT22;16894;49.456;10.644;2023-09-18T07:23:11;19.00;99.90
30069;DHT22;16894;49.456;10.644;2023-09-18T07:25:37;19.20;99.90
30069;DHT22;16894;49.456;10.644;2023-09-18T07:28:07;19.30;99.90
30069;DHT22;16894;49.456;10.644;2023-09-18T07:30:33;19.40;99.90
30069;DHT22;16894;49.456;10.644;2023-09-18T07:32:59;19.60;99.90
30069;DHT22;16894;49.456;10.644;2023-09-18T07:35:26;19.70;99.90
30069;DHT22;16894;49.456;10.644;2023-09-18T07:37:52;19.80;91.20
30069;DHT22;16894;49.456;10.644;2023-09-18T07:40:18;19.90;99.90
30069;DHT22;16894;49.456;10.644;2023-09-18T07:42:44;20.10;76.20
30069;DHT22;16894;49.456;10.644;2023-09-18T07:45:10;20.10;64.20
30069;DHT22;16894;49.456;10.644;2023-09-18T07:47:36;20.30;1.00
30069;DHT22;16894;49.456;10.644;2023-09-18T07:50:02;20.50;1.00
30069;DHT22;16894;49.456;10.644;2023-09-18T07:52:28;20.60;99.90
30069;DHT22;16894;49.456;10.644;2023-09-18T07:54:55;20.80;99.90
30069;DHT22;16894;49.456;10.644;2023-09-18T07:57:20;21.00;99.90
30069;DHT22;16894;49.456;10.644;2023-09-18T07:59:48;21.30;99.90
30069;DHT22;16894;49.456;10.644;2023-09-18T08:02:14;21.40;99.90
30069;DHT22;16894;49.456;10.644;2023-09-18T08:04:40;21.40;99.90
30069;DHT22;16894;49.456;10.644;2023-09-18T08:07:06;21.50;99.90
30069;DHT22;16894;49.456;10.644;2023-09-18T08:09:32;21.60;99.90
30069;DHT22;16894;49.456;10.644;2023-09-18T08:12:02;21.60;1.00
30069;DHT22;16894;49.456;10.644;2023-09-18T08:14:28;21.70;99.90
30069;DHT22;16894;49.456;10.644;2023-09-18T08:16:58;21.80;99.90
30069;DHT22;16894;49.456;10.644;2023-09-18T08:19:25;22.10;99.90
30069;DHT22;16894;49.456;10.644;2023-09-18T08:21:54;22.20;99.90
30069;DHT22;16894;49.456;10.644;2023-09-18T08:24:22;22.30;99.90
30069;DHT22;16894;49.456;10.644;2023-09-18T08:26:48;22.20;99.90
30069;DHT22;16894;49.456;10.644;2023-09-18T08:29:14;22.40;99.90
30069;DHT22;16894;49.456;10.644;2023-09-18T08:31:39;22.50;99.90
30069;DHT22;16894;49.456;10.644;2023-09-18T08:34:05;22.60;1.00
30069;DHT22;16894;49.456;10.644;2023-09-18T08:36:31;22.90;99.90
30069;DHT22;16894;49.456;10.644;2023-09-18T08:38:57;23.10;80.70
30069;DHT22;16894;49.456;10.644;2023-09-18T08:41:23;23.30;1.00
30069;DHT22;16894;49.456;10.644;2023-09-18T08:43:55;23.40;1.00
30069;DHT22;16894;49.456;10.644;2023-09-18T08:46:22;23.50;99.90
30069;DHT22;16894;49.456;10.644;2023-09-18T08:48:48;23.50;99.90
30069;DHT22;16894;49.456;10.644;2023-09-18T08:51:16;23.60;1.00
30069;DHT22;16894;49.456;10.644;2023-09-18T08:53:43;23.80;1.00
30069;DHT22;16894;49.456;10.644;2023-09-18T08:56:10;24.00;99.90
30069;DHT22;16894;49.456;10.644;2023-09-18T08:58:39;24.20;99.90
30069;DHT22;16894;49.456;10.644;2023-09-18T09:01:11;24.20;99.90
30069;DHT22;16894;49.456;10.644;2023-09-18T09:03:38;24.40;99.90
30069;DHT22;16894;49.456;10.644;2023-09-18T09:06:07;24.30;99.90
30069;DHT22;16894;49.456;10.644;2023-09-18T09:08:35;24.10;99.90
30069;DHT22;16894;49.456;10.644;2023-09-18T09:11:01;24.00;99.90
30069;DHT22;16894;49.456;10.644;2023-09-18T09:13:27;24.20;94.60
30069;DHT22;16894;49.456;10.644;2023-09-18T09:15:54;24.40;84.30
30069;DHT22;16894;49.456;10.644;2023-09-18T09:18:22;24.50;95.80
30069;DHT22;16894;49.456;10.644;2023-09-18T09:20:59;24.60;96.30
30069;DHT22;16894;49.456;10.644;2023-09-18T09:23:27;24.70;63.70
30069;DHT22;16894;49.456;10.644;2023-09-18T09:25:54;25.00;23.40
30069;DHT22;16894;49.456;10.644;2023-09-18T09:28:30;25.00;1.00
30069;DHT22;16894;49.456;10.644;2023-09-18T09:31:02;25.10;1.00
30069;DHT22;16894;49.456;10.644;2023-09-18T09:33:28;25.00;1.00
30069;DHT22;16894;49.456;10.644;2023-09-18T09:35:56;25.20;1.00
30069;DHT22;16894;49.456;10.644;2023-09-18T09:38:31;25.20;99.90
30069;DHT22;16894;49.456;10.644;2023-09-18T09:41:04;25.20;99.90
30069;DHT22;16894;49.456;10.644;2023-09-18T09:43:35;25.10;99.90
30069;DHT22;16894;49.456;10.644;2023-09-18T09:46:01;25.10;99.90
30069;DHT22;16894;49.456;10.644;2023-09-18T09:48:27;25.00;99.90
30069;DHT22;16894;49.456;10.644;2023-09-18T09:51:00;24.80;99.90
30069;DHT22;16894;49.456;10.644;2023-09-18T09:53:45;24.90;99.90
30069;DHT22;16894;49.456;10.644;2023-09-18T09:56:14;24.80;99.90
30069;DHT22;16894;49.456;10.644;2023-09-18T09:58:44;24.80;99.90
30069;DHT22;16894;49.456;10.644;2023-09-18T10:01:25;24.90;99.90
30069;DHT22;16894;49.456;10.644;2023-09-18T10:03:54;25.10;99.90
30069;DHT22;16894;49.456;10.644;2023-09-18T10:06:21;25.20;99.90
30069;DHT22;16894;49.456;10.644;2023-09-18T10:08:47;25.20;99.90
30069;DHT22;16894;49.456;10.644;2023-09-18T10:11:18;25.30;99.90
30069;DHT22;16894;49.456;10.644;2023-09-18T10:13:55;25.50;99.90
30069;DHT22;16894;49.456;10.644;2023-09-18T10:16:23;25.30;99.90
30069;DHT22;16894;49.456;10.644;2023-09-18T10:19:04;25.40;99.90
30069;DHT22;16894;49.456;10.644;2023-09-18T10:24:50;25.40;99.90
30069;DHT22;16894;49.456;10.644;2023-09-18T10:27:18;25.40;99.90
30069;DHT22;16894;49.456;10.644;2023-09-18T10:29:49;25.40;99.90
30069;DHT22;16894;49.456;10.644;2023-09-18T10:32:17;25.30;99.90
30069;DHT22;16894;49.456;10.644;2023-09-18T10:34:46;25.20;99.90
30069;DHT22;16894;49.456;10.644;2023-09-18T10:37:15;24.90;99.90
30069;DHT22;16894;49.456;10.644;2023-09-18T10:39:42;24.80;99.90
30069;DHT22;16894;49.456;10.644;2023-09-18T10:42:12;24.60;99.90
30069;DHT22;16894;49.456;10.644;2023-09-18T10:44:40;24.50;99.90
30069;DHT22;16894;49.456;10.644;2023-09-18T10:47:07;24.40;99.90
30069;DHT22;16894;49.456;10.644;2023-09-18T10:49:36;24.30;99.90
30069;DHT22;16894;49.456;10.644;2023-09-18T10:52:03;24.00;99.90
30069;DHT22;16894;49.456;10.644;2023-09-18T10:54:30;23.80;99.90
30069;DHT22;16894;49.456;10.644;2023-09-18T10:56:57;23.40;99.90
30069;DHT22;16894;49.456;10.644;2023-09-18T10:59:23;23.20;99.90
30069;DHT22;16894;49.456;10.644;2023-09-18T11:01:48;23.10;99.90
30069;DHT22;16894;49.456;10.644;2023-09-18T11:04:18;22.90;99.90
30069;DHT22;16894;49.456;10.644;2023-09-18T11:09:24;22.90;99.90
30069;DHT22;16894;49.456;10.644;2023-09-18T11:14:44;22.90;99.90
30069;DHT22;16894;49.456;10.644;2023-09-18T11:17:33;22.90;99.90
30069;DHT22;16894;49.456;10.644;2023-09-18T11:20:18;22.80;99.90
30069;DHT22;16894;49.456;10.644;2023-09-18T11:22:59;22.70;99.90
30069;DHT22;16894;49.456;10.644;2023-09-18T11:28:22;22.60;99.90
30069;DHT22;16894;49.456;10.644;2023-09-18T11:30:58;22.60;99.90
30069;DHT22;16894;49.456;10.644;2023-09-18T11:33:39;22.50;99.90
30069;DHT22;16894;49.456;10.644;2023-09-18T11:36:12;22.40;99.90
30069;DHT22;16894;49.456;10.644;2023-09-18T11:39:00;22.30;99.90
30069;DHT22;16894;49.456;10.644;2023-09-18T11:41:34;22.30;99.90
30069;DHT22;16894;49.456;10.644;2023-09-18T11:46:51;21.90;51.20
30069;DHT22;16894;49.456;10.644;2023-09-18T11:49:21;21.60;1.00
30069;DHT22;16894;49.456;10.644;2023-09-18T11:51:48;21.10;99.90
30069;DHT22;16894;49.456;10.644;2023-09-18T11:54:15;20.80;1.00
30069;DHT22;16894;49.456;10.644;2023-09-18T11:56:43;20.40;99.90
30069;DHT22;16894;49.456;10.644;2023-09-18T11:59:09;20.10;99.90
30069;DHT22;16894;49.456;10.644;2023-09-18T12:01:37;19.80;99.90
30069;DHT22;16894;49.456;10.644;2023-09-18T12:04:05;19.60;99.90
30069;DHT22;16894;49.456;10.644;2023-09-18T12:06:39;19.40;99.90
30069;DHT22;16894;49.456;10.644;2023-09-18T12:09:06;19.20;2.50
30069;DHT22;16894;49.456;10.644;2023-09-18T12:11:35;19.00;99.20
30069;DHT22;16894;49.456;10.644;2023-09-18T12:14:02;18.90;99.90
30069;DHT22;16894;49.456;10.644;2023-09-18T12:16:29;18.80;99.90
30069;DHT22;16894;49.456;10.644;2023-09-18T12:18:55;18.70;99.90
30069;DHT22;16894;49.456;10.644;2023-09-18T12:21:22;18.60;99.90
30069;DHT22;16894;49.456;10.644;2023-09-18T12:23:48;18.60;1.00
30069;DHT22;16894;49.456;10.644;2023-09-18T12:26:16;18.50;99.90
30069;DHT22;16894;49.456;10.644;2023-09-18T12:28:45;18.50;1.00
30069;DHT22;16894;49.456;10.644;2023-09-18T12:31:15;18.40;1.00
30069;DHT22;16894;49.456;10.644;2023-09-18T12:33:42;18.30;99.90
30069;DHT22;16894;49.456;10.644;2023-09-18T12:36:18;18.20;1.00
30069;DHT22;16894;49.456;10.644;2023-09-18T12:38:45;18.10;99.90
30069;DHT22;16894;49.456;10.644;2023-09-18T12:41:20;18.00;99.90
30069;DHT22;16894;49.456;10.644;2023-09-18T12:43:46;18.00;1.00
30069;DHT22;16894;49.456;10.644;2023-09-18T12:46:12;17.90;1.00
30069;DHT22;16894;49.456;10.644;2023-09-18T12:48:40;17.90;1.00
30069;DHT22;16894;49.456;10.644;2023-09-18T12:51:11;17.80;1.00
30069;DHT22;16894;49.456;10.644;2023-09-18T12:53:37;18.00;25.70
30069;DHT22;16894;49.456;10.644;2023-09-18T12:56:13;18.10;34.30
30069;DHT22;16894;49.456;10.644;2023-09-18T12:58:40;18.10;1.00
30069;DHT22;16894;49.456;10.644;2023-09-18T13:01:08;18.10;1.00
30069;DHT22;16894;49.456;10.644;2023-09-18T13:03:44;18.00;1.00
30069;DHT22;16894;49.456;10.644;2023-09-18T13:06:11;17.90;1.00
30069;DHT22;16894;49.456;10.644;2023-09-18T13:08:38;17.90;1.00
30069;DHT22;16894;49.456;10.644;2023-09-18T13:11:04;17.80;1.00
30069;DHT22;16894;49.456;10.644;2023-09-18T13:13:30;17.80;1.00
30069;DHT22;16894;49.456;10.644;2023-09-18T13:16:00;17.70;1.00
30069;DHT22;16894;49.456;10.644;2023-09-18T13:18:26;17.70;6.10
30069;DHT22;16894;49.456;10.644;2023-09-18T13:20:53;17.60;1.00
30069;DHT22;16894;49.456;10.644;2023-09-18T13:23:19;17.50;1.00
30069;DHT22;16894;49.456;10.644;2023-09-18T13:25:45;17.50;7.60
30069;DHT22;16894;49.456;10.644;2023-09-18T13:28:13;17.50;8.40
30069;DHT22;16894;49.456;10.644;2023-09-18T13:30:42;17.40;1.00
30069;DHT22;16894;49.456;10.644;2023-09-18T13:33:11;17.30;1.00
30069;DHT22;16894;49.456;10.644;2023-09-18T13:35:41;17.30;2.40
30069;DHT22;16894;49.456;10.644;2023-09-18T13:38:08;17.20;10.30
30069;DHT22;16894;49.456;10.644;2023-09-18T13:40:40;17.20;28.00
30069;DHT22;16894;49.456;10.644;2023-09-18T13:43:07;17.20;25.30
30069;DHT22;16894;49.456;10.644;2023-09-18T13:45:34;17.10;9.50
30069;DHT22;16894;49.456;10.644;2023-09-18T13:48:03;17.10;2.60
30069;DHT22;16894;49.456;10.644;2023-09-18T13:50:30;17.10;13.90
30069;DHT22;16894;49.456;10.644;2023-09-18T13:52:56;17.00;15.10
30069;DHT22;16894;49.456;10.644;2023-09-18T13:55:22;17.00;7.50
30069;DHT22;16894;49.456;10.644;2023-09-18T13:57:48;17.10;45.30
30069;DHT22;16894;49.456;10.644;2023-09-18T14:00:14;17.10;23.60
30069;DHT22;16894;49.456;10.644;2023-09-18T14:02:40;17.20;36.30
30069;DHT22;16894;49.456;10.644;2023-09-18T14:05:07;17.20;37.90
30069;DHT22;16894;49.456;10.644;2023-09-18T14:07:34;17.20;35.60
30069;DHT22;16894;49.456;10.644;2023-09-18T14:10:00;17.20;27.50
30069;DHT22;16894;49.456;10.644;2023-09-18T14:12:30;17.20;16.70
30069;DHT22;16894;49.456;10.644;2023-09-18T14:14:56;17.20;20.50
30069;DHT22;16894;49.456;10.644;2023-09-18T14:17:22;17.20;14.40
30069;DHT22;16894;49.456;10.644;2023-09-18T14:19:48;17.20;18.90
30069;DHT22;16894;49.456;10.644;2023-09-18T14:22:14;17.20;10.30
30069;DHT22;16894;49.456;10.644;2023-09-18T14:24:40;17.10;7.60
30069;DHT22;16894;49.456;10.644;2023-09-18T14:27:06;17.10;13.70
30069;DHT22;16894;49.456;10.644;2023-09-18T14:29:33;17.20;29.20
30069;DHT22;16894;49.456;10.644;2023-09-18T14:31:59;17.10;1.00
30069;DHT22;16894;49.456;10.644;2023-09-18T14:34:25;17.10;14.60
30069;DHT22;16894;49.456;10.644;2023-09-18T14:36:51;17.20;16.20
30069;DHT22;16894;49.456;10.644;2023-09-18T14:39:17;17.30;1.00
30069;DHT22;16894;49.456;10.644;2023-09-18T14:41:43;17.20;1.00
30069;DHT22;16894;49.456;10.644;2023-09-18T14:44:09;17.30;1.00
30069;DHT22;16894;49.456;10.644;2023-09-18T14:46:36;17.40;1.00
30069;DHT22;16894;49.456;10.644;2023-09-18T14:49:03;17.40;1.00
30069;DHT22;16894;49.456;10.644;2023-09-18T14:51:29;17.50;1.00
30069;DHT22;16894;49.456;10.644;2023-09-18T14:53:56;17.50;1.00
30069;DHT22;16894;49.456;10.644;2023-09-18T14:56:22;17.50;1.00
30069;DHT22;16894;49.456;10.644;2023-09-18T14:58:48;17.60;1.00
30069;DHT22;16894;49.456;10.644;2023-09-18T15:01:15;17.70;1.00
30069;DHT22;16894;49.456;10.644;2023-09-18T15:03:41;17.90;1.00
30069;DHT22;16894;49.456;10.644;2023-09-18T15:06:07;18.00;1.00
30069;DHT22;16894;49.456;10.644;2023-09-18T15:08:36;18.10;99.90
30069;DHT22;16894;49.456;10.644;2023-09-18T15:11:02;18.00;1.00
30069;DHT22;16894;49.456;10.644;2023-09-18T15:13:29;18.00;1.00
30069;DHT22;16894;49.456;10.644;2023-09-18T15:15:56;18.00;99.90
30069;DHT22;16894;49.456;10.644;2023-09-18T15:18:21;18.00;99.90
30069;DHT22;16894;49.456;10.644;2023-09-18T15:20:47;17.90;1.00
30069;DHT22;16894;49.456;10.644;2023-09-18T15:23:13;18.00;99.90
30069;DHT22;16894;49.456;10.644;2023-09-18T15:25:39;18.00;99.90
30069;DHT22;16894;49.456;10.644;2023-09-18T15:28:07;17.90;99.90
30069;DHT22;16894;49.456;10.644;2023-09-18T15:30:33;17.80;99.90
30069;DHT22;16894;49.456;10.644;2023-09-18T15:33:00;17.80;99.90
30069;DHT22;16894;49.456;10.644;2023-09-18T15:35:26;17.90;99.90
30069;DHT22;16894;49.456;10.644;2023-09-18T15:37:52;17.90;1.00
30069;DHT22;16894;49.456;10.644;2023-09-18T15:40:19;18.10;99.90